Time;durP1;ratioP1;P1;durP2;ratioP2;P2;SDS_P1;SDS_P2;PMS_P1;PMS_P2;Temp;Humidity;BMP_temperature;BMP_pressure;BME280_temperature;BME280_humidity;BME280_pressure;Samples;Min_cycle;Max_cycle;Signal;HPM_P1;HPM_P2
2024/04/19 00:00:37;;;;;;;;;;;8.80;8.40;;;;;;5525863;26;20373;-69
2024/04/19 00:03:02;;;;;;;;;;;8.80;8.60;;;;;;5526272;25;19927;-68
2024/04/19 00:05:28;;;;;;;;;;;8.70;8.30;;;;;;5526329;25;19959;-68
2024/04/19 00:07:53;;;;;;;;;;;8.70;8.50;;;;;;5526110;26;19939;-68
2024/04/19 00:10:19;;;;;;;;;;;8.80;8.90;;;;;;5526171;25;19927;-69
2024/04/19 00:12:44;;;;;;;;;;;8.70;9.40;;;;;;5526606;25;19955;-70
2024/04/19 00:15:10;;;;;;;;;;;8.80;8.50;;;;;;5526126;26;19934;-70
2024/04/19 00:17:35;;;;;;;;;;;8.80;9.00;;;;;;5526468;26;19935;-70
2024/04/19 00:20:00;;;;;;;;;;;8.80;8.20;;;;;;5526529;25;19963;-70
2024/04/19 00:22:26;;;;;;;;;;;8.80;9.50;;;;;;5526056;25;19974;-70
2024/04/19 00:24:51;;;;;;;;;;;8.80;8.80;;;;;;5526273;25;19939;-70
2024/04/19 00:27:17;;;;;;;;;;;8.80;10.00;;;;;;5526534;26;19927;-70
2024/04/19 00:29:43;;;;;;;;;;;8.80;9.70;;;;;;5526177;25;19927;-70
2024/04/19 00:32:09;;;;;;;;;;;8.80;8.70;;;;;;5525335;25;19934;-70
2024/04/19 00:34:35;;;;;;;;;;;8.80;8.80;;;;;;5526255;25;19927;-70
2024/04/19 00:37:00;;;;;;;;;;;8.90;8.00;;;;;;5526466;25;20256;-70
2024/04/19 00:39:26;;;;;;;;;;;8.80;7.90;;;;;;5525754;25;19928;-69
2024/04/19 00:41:51;;;;;;;;;;;8.90;8.40;;;;;;5525286;26;19934;-71
2024/04/19 00:44:17;;;;;;;;;;;8.90;9.70;;;;;;5525089;25;19939;-68
2024/04/19 00:46:42;;;;;;;;;;;8.90;12.30;;;;;;5524541;25;20628;-68
2024/04/19 00:49:08;;;;;;;;;;;8.80;15.80;;;;;;5525551;26;19939;-68
2024/04/19 00:51:34;;;;;;;;;;;8.70;19.60;;;;;;5524975;25;19934;-69
2024/04/19 00:53:59;;;;;;;;;;;8.60;23.80;;;;;;5525415;26;19931;-68
2024/04/19 00:56:25;;;;;;;;;;;8.50;28.20;;;;;;5525660;25;19995;-68
2024/04/19 00:58:52;;;;;;;;;;;8.50;34.40;;;;;;5534588;25;19934;-70
2024/04/19 01:01:18;;;;;;;;;;;8.40;36.50;;;;;;5531867;25;19939;-69
2024/04/19 01:03:43;;;;;;;;;;;8.40;41.70;;;;;;5527842;26;19927;-71
2024/04/19 01:06:09;;;;;;;;;;;8.30;59.70;;;;;;5526980;25;19928;-71
2024/04/19 01:08:34;;;;;;;;;;;8.20;56.50;;;;;;5525725;26;19927;-70
2024/04/19 01:11:00;;;;;;;;;;;8.10;67.40;;;;;;5524586;26;19973;-70
2024/04/19 01:13:25;;;;;;;;;;;8.00;59.60;;;;;;5525137;25;20271;-70
2024/04/19 01:15:51;;;;;;;;;;;7.90;64.90;;;;;;5525310;25;19927;-70
2024/04/19 01:18:18;;;;;;;;;;;7.90;75.90;;;;;;5525025;25;19934;-70
2024/04/19 01:20:44;;;;;;;;;;;7.80;79.60;;;;;;5524675;25;19935;-70
2024/04/19 01:23:11;;;;;;;;;;;7.80;78.80;;;;;;5525597;25;19939;-71
2024/04/19 01:25:37;;;;;;;;;;;7.80;72.70;;;;;;5526365;25;20025;-71
2024/04/19 01:28:06;;;;;;;;;;;7.70;77.10;;;;;;5524715;25;19931;-71
2024/04/19 01:30:31;;;;;;;;;;;7.70;83.80;;;;;;5526085;25;19928;-71
2024/04/19 01:32:57;;;;;;;;;;;7.70;85.20;;;;;;5525257;26;19928;-70
2024/04/19 01:35:22;;;;;;;;;;;7.70;87.10;;;;;;5524719;26;19937;-70
2024/04/19 01:37:49;;;;;;;;;;;7.70;90.40;;;;;;5524074;25;19943;-70
2024/04/19 01:40:14;;;;;;;;;;;7.70;89.60;;;;;;5522652;25;19938;-69
2024/04/19 01:42:40;;;;;;;;;;;7.70;90.50;;;;;;5523594;25;19932;-69
2024/04/19 01:45:05;;;;;;;;;;;7.70;87.90;;;;;;5524570;25;19935;-70
2024/04/19 01:47:31;;;;;;;;;;;7.70;89.70;;;;;;5525453;25;19927;-69
2024/04/19 01:49:56;;;;;;;;;;;7.70;85.20;;;;;;5527016;25;19935;-69
2024/04/19 01:52:22;;;;;;;;;;;7.80;81.60;;;;;;5525204;25;19927;-70
2024/04/19 01:54:47;;;;;;;;;;;7.70;68.90;;;;;;5525845;25;19928;-70
2024/04/19 01:57:13;;;;;;;;;;;7.70;78.10;;;;;;5527845;25;20366;-71
2024/04/19 01:59:38;;;;;;;;;;;7.60;90.30;;;;;;5529651;26;19935;-71
2024/04/19 02:02:04;;;;;;;;;;;7.50;92.30;;;;;;5528807;26;20657;-71
2024/04/19 02:04:32;;;;;;;;;;;7.30;92.10;;;;;;5527887;26;19931;-70
2024/04/19 02:06:58;;;;;;;;;;;7.20;97.10;;;;;;5527963;25;19939;-71
2024/04/19 02:09:23;;;;;;;;;;;7.00;99.90;;;;;;5528212;25;19935;-70
2024/04/19 02:11:49;;;;;;;;;;;7.00;99.90;;;;;;5527422;26;19934;-70
2024/04/19 02:14:14;;;;;;;;;;;6.90;99.90;;;;;;5527802;25;19939;-70
2024/04/19 02:16:39;;;;;;;;;;;6.80;99.90;;;;;;5527862;26;19935;-70
2024/04/19 02:19:05;;;;;;;;;;;6.80;99.90;;;;;;5527743;26;19939;-69
2024/04/19 02:21:30;;;;;;;;;;;6.80;99.90;;;;;;5527242;26;19927;-70
2024/04/19 02:23:56;;;;;;;;;;;6.70;99.90;;;;;;5527767;25;20267;-70
2024/04/19 02:26:21;;;;;;;;;;;6.70;99.90;;;;;;5527701;25;19928;-70
2024/04/19 02:31:31;;;;;;;;;;;6.70;99.90;;;;;;5527286;25;19935;-71
2024/04/19 02:33:56;;;;;;;;;;;6.80;99.90;;;;;;5527814;26;19927;-69
2024/04/19 02:36:22;;;;;;;;;;;6.70;99.90;;;;;;5527494;25;20292;-69
2024/04/19 02:38:47;;;;;;;;;;;6.80;99.90;;;;;;5527709;26;19927;-70
2024/04/19 02:41:13;;;;;;;;;;;6.70;99.90;;;;;;5527135;25;19927;-69
2024/04/19 02:43:38;;;;;;;;;;;6.70;99.90;;;;;;5527509;26;19939;-70
2024/04/19 02:46:04;;;;;;;;;;;6.70;99.90;;;;;;5529277;26;19972;-71
2024/04/19 02:48:30;;;;;;;;;;;6.70;99.90;;;;;;5529190;25;19995;-72
2024/04/19 02:50:56;;;;;;;;;;;6.70;99.90;;;;;;5528613;25;19963;-70
2024/04/19 02:53:21;;;;;;;;;;;6.70;99.90;;;;;;5527313;25;20371;-71
2024/04/19 02:55:48;;;;;;;;;;;6.70;99.90;;;;;;5527254;26;20386;-70
2024/04/19 02:58:13;;;;;;;;;;;6.70;99.90;;;;;;5527173;25;20011;-70
2024/04/19 03:00:39;;;;;;;;;;;6.70;99.90;;;;;;5526881;25;19935;-70
2024/04/19 03:03:04;;;;;;;;;;;6.70;99.90;;;;;;5527952;25;19933;-72
2024/04/19 03:05:30;;;;;;;;;;;6.70;99.90;;;;;;5528268;26;19939;-71
2024/04/19 03:07:55;;;;;;;;;;;6.70;99.90;;;;;;5527333;26;19936;-72
2024/04/19 03:10:21;;;;;;;;;;;6.80;99.90;;;;;;5528311;26;20268;-71
2024/04/19 03:12:46;;;;;;;;;;;6.70;99.90;;;;;;5528641;25;19942;-71
2024/04/19 03:15:12;;;;;;;;;;;6.70;99.90;;;;;;5527625;25;20375;-69
2024/04/19 03:17:37;;;;;;;;;;;6.70;99.90;;;;;;5526883;25;19927;-69
2024/04/19 03:20:03;;;;;;;;;;;6.70;99.90;;;;;;5526806;26;19967;-70
2024/04/19 03:22:28;;;;;;;;;;;6.70;99.90;;;;;;5527773;25;19967;-71
2024/04/19 03:24:54;;;;;;;;;;;6.60;99.90;;;;;;5528043;25;19932;-71
2024/04/19 03:27:19;;;;;;;;;;;6.60;99.90;;;;;;5527960;25;19934;-71
2024/04/19 03:29:51;;;;;;;;;;;6.60;99.90;;;;;;5528345;25;19934;-72
2024/04/19 03:32:17;;;;;;;;;;;6.60;99.90;;;;;;5528083;25;19927;-71
2024/04/19 03:34:42;;;;;;;;;;;6.60;99.90;;;;;;5528598;25;19934;-72
2024/04/19 03:37:08;;;;;;;;;;;6.50;99.90;;;;;;5529337;25;19927;-72
2024/04/19 03:39:33;;;;;;;;;;;6.50;99.90;;;;;;5527509;26;20481;-70
2024/04/19 03:41:59;;;;;;;;;;;6.40;99.90;;;;;;5526090;26;19935;-70
2024/04/19 03:47:08;;;;;;;;;;;6.30;99.90;;;;;;5526625;26;19935;-72
2024/04/19 03:49:34;;;;;;;;;;;6.30;99.90;;;;;;5527330;25;19931;-71
2024/04/19 03:51:59;;;;;;;;;;;6.30;99.90;;;;;;5528081;25;19928;-72
2024/04/19 03:54:25;;;;;;;;;;;6.30;99.90;;;;;;5528978;25;19999;-72
2024/04/19 03:56:50;;;;;;;;;;;6.30;99.90;;;;;;5524614;25;19956;-70
2024/04/19 03:59:16;;;;;;;;;;;6.20;99.90;;;;;;5526259;25;20411;-70
2024/04/19 04:01:41;;;;;;;;;;;6.20;99.90;;;;;;5525862;25;19995;-70
2024/04/19 04:04:07;;;;;;;;;;;6.20;99.90;;;;;;5528987;25;19939;-72
2024/04/19 04:06:33;;;;;;;;;;;6.20;99.90;;;;;;5530300;25;19964;-70
2024/04/19 04:08:59;;;;;;;;;;;6.10;99.90;;;;;;5531467;25;19928;-71
2024/04/19 04:11:24;;;;;;;;;;;6.10;99.90;;;;;;5529954;25;19935;-72
2024/04/19 04:13:49;;;;;;;;;;;6.10;99.90;;;;;;5530117;26;19933;-71
2024/04/19 04:16:15;;;;;;;;;;;6.10;99.90;;;;;;5526154;26;20271;-71
2024/04/19 04:18:40;;;;;;;;;;;6.10;99.90;;;;;;5526474;26;19935;-71
2024/04/19 04:21:06;;;;;;;;;;;6.10;99.90;;;;;;5525261;25;19927;-71
2024/04/19 04:23:31;;;;;;;;;;;6.00;99.90;;;;;;5526059;26;20363;-71
2024/04/19 04:25:57;;;;;;;;;;;6.00;99.90;;;;;;5525904;26;19939;-73
2024/04/19 04:28:23;;;;;;;;;;;6.00;99.90;;;;;;5525578;26;20310;-70
2024/04/19 04:30:49;;;;;;;;;;;6.00;99.90;;;;;;5525837;25;19927;-72
2024/04/19 04:33:15;;;;;;;;;;;6.00;99.90;;;;;;5529934;25;19928;-72
2024/04/19 04:35:40;;;;;;;;;;;6.00;99.90;;;;;;5530394;25;19939;-72
2024/04/19 04:38:06;;;;;;;;;;;5.90;99.90;;;;;;5526995;25;19928;-71
2024/04/19 04:40:32;;;;;;;;;;;5.80;99.90;;;;;;5525076;25;20363;-70
2024/04/19 04:42:58;;;;;;;;;;;5.80;99.90;;;;;;5525735;25;19938;-71
2024/04/19 04:45:23;;;;;;;;;;;5.70;99.90;;;;;;5525524;25;19927;-71
2024/04/19 04:47:49;;;;;;;;;;;5.60;99.90;;;;;;5525830;25;19927;-71
2024/04/19 04:50:14;;;;;;;;;;;5.60;99.90;;;;;;5527010;25;19927;-70
2024/04/19 04:52:40;;;;;;;;;;;5.60;99.90;;;;;;5527772;26;19960;-71
2024/04/19 04:55:06;;;;;;;;;;;5.60;99.90;;;;;;5528035;25;19938;-71
2024/04/19 04:57:32;;;;;;;;;;;5.60;99.90;;;;;;5527270;25;19934;-71
2024/04/19 04:59:58;;;;;;;;;;;5.60;99.90;;;;;;5526659;25;19927;-71
2024/04/19 05:02:23;;;;;;;;;;;5.50;99.90;;;;;;5525848;25;19935;-71
2024/04/19 05:04:49;;;;;;;;;;;5.50;99.90;;;;;;5526679;25;19936;-72
2024/04/19 05:07:14;;;;;;;;;;;5.60;99.90;;;;;;5525882;25;19931;-71
2024/04/19 05:09:40;;;;;;;;;;;5.60;99.90;;;;;;5525153;25;19927;-71
2024/04/19 05:12:05;;;;;;;;;;;5.60;99.90;;;;;;5524812;25;19927;-71
2024/04/19 05:14:31;;;;;;;;;;;5.60;99.90;;;;;;5525424;25;19931;-71
2024/04/19 05:16:57;;;;;;;;;;;5.60;99.90;;;;;;5525211;26;20374;-71
2024/04/19 05:19:23;;;;;;;;;;;5.60;99.90;;;;;;5525180;25;19928;-70
2024/04/19 05:21:48;;;;;;;;;;;5.60;99.90;;;;;;5524863;25;19936;-74
2024/04/19 05:24:14;;;;;;;;;;;5.60;99.90;;;;;;5524910;26;19933;-71
2024/04/19 05:26:39;;;;;;;;;;;5.70;99.90;;;;;;5525164;26;19960;-72
2024/04/19 05:29:04;;;;;;;;;;;5.70;99.90;;;;;;5524855;26;19927;-71
2024/04/19 05:31:30;;;;;;;;;;;5.70;99.90;;;;;;5525571;26;19938;-72
2024/04/19 05:33:55;;;;;;;;;;;5.70;99.90;;;;;;5528543;26;19934;-71
2024/04/19 05:36:21;;;;;;;;;;;5.80;99.90;;;;;;5528552;26;19928;-71
2024/04/19 05:38:47;;;;;;;;;;;5.70;99.90;;;;;;5528783;26;19976;-71
2024/04/19 05:41:12;;;;;;;;;;;5.80;99.90;;;;;;5527865;26;19934;-71
2024/04/19 05:43:38;;;;;;;;;;;5.80;99.90;;;;;;5528459;25;19935;-71
2024/04/19 05:46:03;;;;;;;;;;;5.80;99.90;;;;;;5528694;25;20371;-71
2024/04/19 05:48:29;;;;;;;;;;;5.80;99.90;;;;;;5528347;26;19955;-72
2024/04/19 05:50:54;;;;;;;;;;;5.80;99.90;;;;;;5527759;25;20355;-72
2024/04/19 05:53:20;;;;;;;;;;;5.80;99.90;;;;;;5528187;25;19928;-71
2024/04/19 05:55:45;;;;;;;;;;;5.90;99.90;;;;;;5528410;26;19935;-71
2024/04/19 05:58:11;;;;;;;;;;;5.90;99.90;;;;;;5528144;25;19995;-72
2024/04/19 06:00:37;;;;;;;;;;;5.90;99.90;;;;;;5527693;25;20598;-72
2024/04/19 06:03:03;;;;;;;;;;;6.00;99.90;;;;;;5528189;25;19936;-71
2024/04/19 06:05:28;;;;;;;;;;;6.00;99.90;;;;;;5528086;25;19934;-71
2024/04/19 06:07:54;;;;;;;;;;;6.00;99.90;;;;;;5527972;25;19939;-72
2024/04/19 06:10:19;;;;;;;;;;;6.10;99.90;;;;;;5527345;25;19928;-71
2024/04/19 06:12:45;;;;;;;;;;;6.10;99.90;;;;;;5527909;25;19959;-71
2024/04/19 06:15:10;;;;;;;;;;;6.20;99.90;;;;;;5527971;26;20359;-72
2024/04/19 06:17:36;;;;;;;;;;;6.20;99.90;;;;;;5527855;26;19927;-71
2024/04/19 06:20:01;;;;;;;;;;;6.30;99.90;;;;;;5527881;26;19934;-72
2024/04/19 06:22:27;;;;;;;;;;;6.30;99.90;;;;;;5527372;25;19927;-71
2024/04/19 06:24:52;;;;;;;;;;;6.30;99.90;;;;;;5528058;25;19932;-71
2024/04/19 06:27:18;;;;;;;;;;;6.40;99.90;;;;;;5527768;25;19931;-72
2024/04/19 06:29:43;;;;;;;;;;;6.50;99.90;;;;;;5527738;25;20011;-71
2024/04/19 06:32:09;;;;;;;;;;;6.50;99.90;;;;;;5527394;26;20016;-73
2024/04/19 06:34:35;;;;;;;;;;;6.50;99.90;;;;;;5527807;25;19995;-73
2024/04/19 06:37:01;;;;;;;;;;;6.60;99.90;;;;;;5527603;25;19935;-72
2024/04/19 06:39:26;;;;;;;;;;;6.60;99.90;;;;;;5527627;25;19935;-72
2024/04/19 06:41:52;;;;;;;;;;;6.60;99.90;;;;;;5526984;25;19935;-72
2024/04/19 06:44:17;;;;;;;;;;;6.60;99.90;;;;;;5527685;25;19939;-73
2024/04/19 06:46:43;;;;;;;;;;;6.70;99.90;;;;;;5527872;25;20627;-73
2024/04/19 06:49:08;;;;;;;;;;;6.70;99.90;;;;;;5527298;25;19996;-73
2024/04/19 06:51:34;;;;;;;;;;;6.70;99.90;;;;;;5527166;26;19928;-72
2024/04/19 06:53:59;;;;;;;;;;;6.80;99.90;;;;;;5527678;26;19951;-73
2024/04/19 06:56:25;;;;;;;;;;;6.80;99.90;;;;;;5527545;25;19935;-72
2024/04/19 06:58:50;;;;;;;;;;;6.80;99.90;;;;;;5527219;25;19927;-71
2024/04/19 07:01:16;;;;;;;;;;;6.90;99.90;;;;;;5527095;25;19928;-72
2024/04/19 07:03:41;;;;;;;;;;;6.90;99.90;;;;;;5525465;26;19935;-70
2024/04/19 07:06:10;;;;;;;;;;;6.90;99.90;;;;;;5527152;25;19928;-70
2024/04/19 07:08:36;;;;;;;;;;;6.90;99.90;;;;;;5527209;25;19995;-71
2024/04/19 07:11:02;;;;;;;;;;;7.00;99.90;;;;;;5526533;25;19936;-72
2024/04/19 07:13:28;;;;;;;;;;;7.00;99.90;;;;;;5527096;25;20382;-71
2024/04/19 07:15:53;;;;;;;;;;;7.00;99.90;;;;;;5527012;25;19932;-71
2024/04/19 07:18:22;;;;;;;;;;;7.10;99.90;;;;;;5527035;25;20271;-71
2024/04/19 07:20:50;;;;;;;;;;;7.10;99.90;;;;;;5526656;25;20262;-71
2024/04/19 07:23:16;;;;;;;;;;;7.10;99.90;;;;;;5527162;25;20359;-70
2024/04/19 07:25:42;;;;;;;;;;;7.20;99.90;;;;;;5527258;25;19934;-71
2024/04/19 07:28:07;;;;;;;;;;;7.20;99.90;;;;;;5526826;25;19927;-70
2024/04/19 07:30:33;;;;;;;;;;;7.30;99.90;;;;;;5504303;25;19940;-70
2024/04/19 07:32:58;;;;;;;;;;;7.30;99.90;;;;;;5489746;26;19935;-70
2024/04/19 07:35:24;;;;;;;;;;;7.30;99.90;;;;;;5489745;26;19928;-70
2024/04/19 07:37:49;;;;;;;;;;;7.40;99.90;;;;;;5489737;26;19995;-71
2024/04/19 07:40:15;;;;;;;;;;;7.30;99.90;;;;;;5486776;26;19928;-71
2024/04/19 07:42:40;;;;;;;;;;;7.40;99.90;;;;;;5489373;26;19940;-70
2024/04/19 07:45:07;;;;;;;;;;;7.40;99.90;;;;;;5487052;26;19934;-69
2024/04/19 07:47:33;;;;;;;;;;;7.50;99.90;;;;;;5489730;26;20269;-69
2024/04/19 07:49:58;;;;;;;;;;;7.50;99.90;;;;;;5489715;26;19932;-69
2024/04/19 07:52:24;;;;;;;;;;;7.60;99.90;;;;;;5489170;26;20364;-69
2024/04/19 07:54:49;;;;;;;;;;;7.70;99.90;;;;;;5488952;26;20372;-68
2024/04/19 07:57:15;;;;;;;;;;;7.70;99.90;;;;;;5489410;26;19932;-70
2024/04/19 07:59:40;;;;;;;;;;;7.80;99.90;;;;;;5489323;26;20441;-69
2024/04/19 08:02:06;;;;;;;;;;;7.90;99.90;;;;;;5488976;26;19939;-69
2024/04/19 08:04:31;;;;;;;;;;;7.90;99.90;;;;;;5489058;26;19934;-69
2024/04/19 08:06:57;;;;;;;;;;;8.00;99.90;;;;;;5489168;26;19928;-69
2024/04/19 08:09:22;;;;;;;;;;;8.00;99.90;;;;;;5488950;26;19935;-69
2024/04/19 08:11:49;;;;;;;;;;;8.10;99.90;;;;;;5488920;26;20267;-69
2024/04/19 08:14:14;;;;;;;;;;;8.20;99.90;;;;;;5489013;26;19928;-69
2024/04/19 08:16:40;;;;;;;;;;;8.20;99.90;;;;;;5489003;26;19927;-69
2024/04/19 08:19:05;;;;;;;;;;;8.30;99.90;;;;;;5488866;26;19936;-70
2024/04/19 08:21:32;;;;;;;;;;;8.30;99.90;;;;;;5488476;26;19998;-69
2024/04/19 08:23:58;;;;;;;;;;;8.40;99.90;;;;;;5489113;26;19964;-69
2024/04/19 08:26:24;;;;;;;;;;;8.40;99.90;;;;;;5488779;26;20275;-69
2024/04/19 08:28:49;;;;;;;;;;;8.50;99.90;;;;;;5488836;26;19957;-69
2024/04/19 08:31:15;;;;;;;;;;;8.50;99.90;;;;;;5488736;26;20022;-68
2024/04/19 08:33:40;;;;;;;;;;;8.60;99.90;;;;;;5488816;26;19935;-69
2024/04/19 08:36:06;;;;;;;;;;;8.70;99.90;;;;;;5489159;26;20256;-68
2024/04/19 08:38:31;;;;;;;;;;;8.70;99.90;;;;;;5488858;26;19937;-71
2024/04/19 08:41:01;;;;;;;;;;;8.80;99.90;;;;;;5488003;26;19943;-71
2024/04/19 08:43:29;;;;;;;;;;;8.90;99.90;;;;;;5488838;26;20379;-70
2024/04/19 08:45:56;;;;;;;;;;;9.00;99.90;;;;;;5488866;26;19936;-70
2024/04/19 08:48:22;;;;;;;;;;;9.10;99.90;;;;;;5488496;26;19928;-70
2024/04/19 08:50:49;;;;;;;;;;;9.30;99.90;;;;;;5487963;26;20012;-68
2024/04/19 08:53:14;;;;;;;;;;;9.40;99.90;;;;;;5488550;26;19965;-69
2024/04/19 08:55:41;;;;;;;;;;;9.50;99.90;;;;;;5488339;26;19928;-67
2024/04/19 08:58:06;;;;;;;;;;;9.50;99.90;;;;;;5488571;26;19935;-68
2024/04/19 09:00:32;;;;;;;;;;;9.50;99.90;;;;;;5488228;26;20371;-69
2024/04/19 09:02:57;;;;;;;;;;;9.60;99.90;;;;;;5488287;26;19935;-69
2024/04/19 09:05:23;;;;;;;;;;;9.60;99.90;;;;;;5487456;26;19936;-69
2024/04/19 09:07:49;;;;;;;;;;;9.70;99.90;;;;;;5487488;26;19928;-70
2024/04/19 09:10:14;;;;;;;;;;;9.70;99.90;;;;;;5487508;26;19995;-70
2024/04/19 09:12:40;;;;;;;;;;;9.70;99.90;;;;;;5488238;26;20314;-70
2024/04/19 09:15:06;;;;;;;;;;;9.80;99.90;;;;;;5488280;26;19936;-71
2024/04/19 09:17:32;;;;;;;;;;;9.70;99.90;;;;;;5488088;26;20362;-70
2024/04/19 09:19:58;;;;;;;;;;;9.70;99.90;;;;;;5487763;26;20363;-70
2024/04/19 09:22:23;;;;;;;;;;;9.80;99.90;;;;;;5487761;26;19935;-70
2024/04/19 09:24:54;;;;;;;;;;;9.80;99.90;;;;;;5487789;26;20001;-70
2024/04/19 09:27:21;;;;;;;;;;;9.80;99.90;;;;;;5488269;26;19977;-71
2024/04/19 09:29:47;;;;;;;;;;;9.80;99.90;;;;;;5487718;26;20427;-69
2024/04/19 09:32:12;;;;;;;;;;;9.90;99.90;;;;;;5487643;26;19934;-70
2024/04/19 09:34:38;;;;;;;;;;;9.80;99.90;;;;;;5487596;26;19939;-70
2024/04/19 09:37:04;;;;;;;;;;;9.80;99.90;;;;;;5488128;26;19928;-70
2024/04/19 09:39:29;;;;;;;;;;;9.80;99.90;;;;;;5487550;26;19961;-70
2024/04/19 09:41:56;;;;;;;;;;;9.80;99.90;;;;;;5486826;26;19935;-71
2024/04/19 09:44:23;;;;;;;;;;;9.80;99.90;;;;;;5487583;26;19928;-71
2024/04/19 09:46:49;;;;;;;;;;;9.90;99.90;;;;;;5487532;26;20376;-71
2024/04/19 09:49:18;;;;;;;;;;;9.90;99.90;;;;;;5487343;26;19998;-71
2024/04/19 09:51:46;;;;;;;;;;;10.00;99.90;;;;;;5487023;26;20382;-70
2024/04/19 09:54:12;;;;;;;;;;;10.10;99.90;;;;;;5485557;26;19936;-69
2024/04/19 09:56:43;;;;;;;;;;;10.30;99.90;;;;;;5487569;26;19928;-70
2024/04/19 09:59:09;;;;;;;;;;;10.40;99.90;;;;;;5487830;26;19927;-70
2024/04/19 10:01:38;;;;;;;;;;;10.50;99.90;;;;;;5486683;26;19935;-70
2024/04/19 10:04:08;;;;;;;;;;;10.70;99.90;;;;;;5487129;26;19928;-71
2024/04/19 10:06:37;;;;;;;;;;;10.70;99.90;;;;;;5487348;26;19928;-70
2024/04/19 10:09:04;;;;;;;;;;;10.70;99.90;;;;;;5487028;26;20371;-70
2024/04/19 10:11:30;;;;;;;;;;;10.80;99.90;;;;;;5486571;26;19934;-70
2024/04/19 10:13:55;;;;;;;;;;;10.80;99.90;;;;;;5485229;26;19928;-70
2024/04/19 10:16:21;;;;;;;;;;;10.80;99.90;;;;;;5486913;26;19935;-71
2024/04/19 10:18:46;;;;;;;;;;;10.70;99.90;;;;;;5490016;26;19965;-70
2024/04/19 10:21:12;;;;;;;;;;;10.70;99.90;;;;;;5490338;26;19935;-70
2024/04/19 10:23:38;;;;;;;;;;;10.70;99.90;;;;;;5490467;26;19935;-70
2024/04/19 10:26:03;;;;;;;;;;;10.80;99.90;;;;;;5498281;26;19928;-71
2024/04/19 10:28:29;;;;;;;;;;;10.90;99.90;;;;;;5516970;25;20274;-70
2024/04/19 10:30:55;;;;;;;;;;;11.00;99.90;;;;;;5526979;25;19927;-71
2024/04/19 10:33:20;;;;;;;;;;;11.00;99.90;;;;;;5527404;26;19927;-70
2024/04/19 10:35:46;;;;;;;;;;;11.10;99.90;;;;;;5527408;25;19995;-69
2024/04/19 10:38:15;;;;;;;;;;;10.90;99.90;;;;;;5527408;25;19927;-70
2024/04/19 10:40:42;;;;;;;;;;;10.80;99.90;;;;;;5527253;25;19959;-70
2024/04/19 10:43:07;;;;;;;;;;;10.70;99.90;;;;;;5527299;25;20455;-70
2024/04/19 10:45:34;;;;;;;;;;;10.60;99.90;;;;;;5515777;26;19956;-70
2024/04/19 10:48:01;;;;;;;;;;;10.60;99.90;;;;;;5511093;25;20318;-69
2024/04/19 10:50:27;;;;;;;;;;;10.60;99.90;;;;;;5500941;25;19935;-69
2024/04/19 10:52:52;;;;;;;;;;;10.60;99.90;;;;;;5490188;26;19940;-69
2024/04/19 10:55:18;;;;;;;;;;;10.60;99.90;;;;;;5489830;26;19997;-70
2024/04/19 10:57:43;;;;;;;;;;;10.60;99.90;;;;;;5490140;26;19928;-70
2024/04/19 11:00:09;;;;;;;;;;;10.60;99.90;;;;;;5489067;26;20376;-69
2024/04/19 11:02:35;;;;;;;;;;;10.60;99.90;;;;;;5490117;26;19939;-69
2024/04/19 11:05:02;;;;;;;;;;;10.60;99.90;;;;;;5490151;26;19964;-70
2024/04/19 11:07:28;;;;;;;;;;;10.70;99.90;;;;;;5489850;26;19928;-69
2024/04/19 11:09:53;;;;;;;;;;;10.70;99.90;;;;;;5489861;26;19935;-69
2024/04/19 11:12:18;;;;;;;;;;;10.70;99.90;;;;;;5489695;26;19928;-70
2024/04/19 11:14:44;;;;;;;;;;;10.60;99.90;;;;;;5489585;26;20694;-69
2024/04/19 11:17:10;;;;;;;;;;;10.60;99.90;;;;;;5489904;26;19964;-70
2024/04/19 11:19:35;;;;;;;;;;;10.70;99.90;;;;;;5489843;26;19928;-70
2024/04/19 11:22:01;;;;;;;;;;;10.80;99.90;;;;;;5489447;26;19928;-69
2024/04/19 11:24:27;;;;;;;;;;;10.80;99.90;;;;;;5489900;26;20368;-69
2024/04/19 11:26:53;;;;;;;;;;;10.80;99.90;;;;;;5489829;26;19936;-69
2024/04/19 11:29:19;;;;;;;;;;;10.80;99.90;;;;;;5488416;26;20388;-69
2024/04/19 11:31:45;;;;;;;;;;;10.90;99.90;;;;;;5489278;26;19928;-69
2024/04/19 11:34:10;;;;;;;;;;;10.90;99.90;;;;;;5490006;26;19996;-70
2024/04/19 11:36:36;;;;;;;;;;;11.00;99.90;;;;;;5489813;26;19940;-69
2024/04/19 11:39:01;;;;;;;;;;;11.00;99.90;;;;;;5489282;26;20264;-70
2024/04/19 11:41:27;;;;;;;;;;;11.00;99.90;;;;;;5487189;26;19928;-69
2024/04/19 11:43:56;;;;;;;;;;;11.00;99.90;;;;;;5489697;26;19928;-69
2024/04/19 11:46:21;;;;;;;;;;;11.00;99.90;;;;;;5489253;26;20327;-69
2024/04/19 11:48:47;;;;;;;;;;;11.00;99.90;;;;;;5489526;26;19928;-69
2024/04/19 11:51:13;;;;;;;;;;;11.10;99.90;;;;;;5486947;26;19936;-69
2024/04/19 11:53:40;;;;;;;;;;;10.90;99.90;;;;;;5489191;26;19932;-69
2024/04/19 11:56:06;;;;;;;;;;;10.80;99.90;;;;;;5489623;26;19952;-69
2024/04/19 11:58:33;;;;;;;;;;;10.70;99.90;;;;;;5489653;26;19928;-70
2024/04/19 12:00:58;;;;;;;;;;;10.60;99.90;;;;;;5487545;26;19928;-69
2024/04/19 12:03:24;;;;;;;;;;;10.50;99.90;;;;;;5488791;26;19932;-70
2024/04/19 12:05:49;;;;;;;;;;;10.30;99.90;;;;;;5489280;26;20038;-69
2024/04/19 12:08:15;;;;;;;;;;;10.30;99.90;;;;;;5488878;26;19934;-69
2024/04/19 12:10:40;;;;;;;;;;;10.20;99.90;;;;;;5488680;26;19931;-70
2024/04/19 12:13:08;;;;;;;;;;;10.30;99.90;;;;;;5489157;26;19936;-69
2024/04/19 12:15:33;;;;;;;;;;;10.60;99.90;;;;;;5488944;26;19932;-71
2024/04/19 12:18:00;;;;;;;;;;;10.70;99.90;;;;;;5487249;26;20360;-71
2024/04/19 12:20:26;;;;;;;;;;;10.80;99.90;;;;;;5488758;26;20021;-72
2024/04/19 12:22:51;;;;;;;;;;;11.00;99.90;;;;;;5488943;26;19936;-71
2024/04/19 12:25:17;;;;;;;;;;;11.20;99.90;;;;;;5489251;26;20276;-71
2024/04/19 12:27:42;;;;;;;;;;;11.20;99.90;;;;;;5488862;26;20301;-71
2024/04/19 12:30:08;;;;;;;;;;;10.90;99.90;;;;;;5488481;26;19935;-72
2024/04/19 12:32:34;;;;;;;;;;;10.60;99.90;;;;;;5488550;26;20384;-72
2024/04/19 12:34:59;;;;;;;;;;;10.40;99.90;;;;;;5489019;26;19928;-73
2024/04/19 12:37:25;;;;;;;;;;;10.10;99.90;;;;;;5488894;26;19955;-73
2024/04/19 12:39:50;;;;;;;;;;;9.90;99.90;;;;;;5488550;26;19997;-71
2024/04/19 12:42:16;;;;;;;;;;;9.50;99.90;;;;;;5488780;26;19934;-71
2024/04/19 12:44:47;;;;;;;;;;;8.90;99.90;;;;;;5488453;26;19928;-72
2024/04/19 12:47:13;;;;;;;;;;;8.60;99.90;;;;;;5488820;26;20380;-73
2024/04/19 12:49:39;;;;;;;;;;;8.20;99.90;;;;;;5488655;26;19928;-73
2024/04/19 12:52:04;;;;;;;;;;;8.10;99.90;;;;;;5488395;26;19934;-73
2024/04/19 12:54:30;;;;;;;;;;;8.20;99.90;;;;;;5488634;26;19928;-72
2024/04/19 12:56:55;;;;;;;;;;;8.20;99.90;;;;;;5488556;26;20273;-72
2024/04/19 12:59:21;;;;;;;;;;;8.40;99.90;;;;;;5488220;26;20272;-73
2024/04/19 13:01:46;;;;;;;;;;;9.30;99.90;;;;;;5488092;26;19928;-72
2024/04/19 13:04:12;;;;;;;;;;;10.50;99.90;;;;;;5488489;26;19935;-72
2024/04/19 13:06:37;;;;;;;;;;;11.50;99.90;;;;;;5488330;26;19939;-72
2024/04/19 13:09:03;;;;;;;;;;;12.10;99.90;;;;;;5488327;26;19935;-72
2024/04/19 13:11:29;;;;;;;;;;;12.20;99.90;;;;;;5487661;26;19928;-73
2024/04/19 13:13:59;;;;;;;;;;;12.20;99.90;;;;;;5488098;26;19935;-72
2024/04/19 13:16:25;;;;;;;;;;;12.30;99.90;;;;;;5486683;26;19928;-71
2024/04/19 13:18:51;;;;;;;;;;;12.80;99.90;;;;;;5488257;26;19927;-72
2024/04/19 13:21:17;;;;;;;;;;;13.10;99.90;;;;;;5487513;26;20494;-71
2024/04/19 13:23:42;;;;;;;;;;;13.00;98.40;;;;;;5488331;26;19928;-72
2024/04/19 13:26:08;;;;;;;;;;;12.70;15.20;;;;;;5488120;26;19928;-71
2024/04/19 13:28:34;;;;;;;;;;;12.40;24.50;;;;;;5485939;26;19928;-71
2024/04/19 13:31:00;;;;;;;;;;;12.10;28.90;;;;;;5487306;26;19936;-72
2024/04/19 13:33:26;;;;;;;;;;;12.00;28.00;;;;;;5488073;26;19928;-71
2024/04/19 13:35:51;;;;;;;;;;;12.20;28.10;;;;;;5487726;26;19928;-73
2024/04/19 13:38:17;;;;;;;;;;;12.00;19.50;;;;;;5487719;26;20356;-73
2024/04/19 13:40:42;;;;;;;;;;;10.50;21.00;;;;;;5492272;26;20368;-72
2024/04/19 13:43:08;;;;;;;;;;;9.20;61.90;;;;;;5487394;26;19928;-72
2024/04/19 13:45:33;;;;;;;;;;;8.70;99.90;;;;;;5487797;26;20387;-72
2024/04/19 13:47:59;;;;;;;;;;;8.40;99.90;;;;;;5487629;26;19935;-72
2024/04/19 13:50:25;;;;;;;;;;;8.30;99.90;;;;;;5487424;26;19928;-72
2024/04/19 13:52:50;;;;;;;;;;;8.20;99.90;;;;;;5489198;26;19928;-72
2024/04/19 13:55:16;;;;;;;;;;;8.30;99.90;;;;;;5491172;26;20000;-73
2024/04/19 13:57:42;;;;;;;;;;;8.30;99.90;;;;;;5490924;26;20324;-73
2024/04/19 14:00:11;;;;;;;;;;;8.40;99.90;;;;;;5491097;26;19978;-72
2024/04/19 14:02:36;;;;;;;;;;;8.60;99.90;;;;;;5491253;26;19996;-72
2024/04/19 14:05:02;;;;;;;;;;;8.70;99.90;;;;;;5491135;26;19940;-72
2024/04/19 14:07:27;;;;;;;;;;;8.90;99.90;;;;;;5491055;26;19928;-72
2024/04/19 14:09:52;;;;;;;;;;;8.90;99.90;;;;;;5490845;26;19935;-71
2024/04/19 14:12:18;;;;;;;;;;;8.90;99.90;;;;;;5490482;26;20356;-72
2024/04/19 14:14:43;;;;;;;;;;;9.00;99.90;;;;;;5491078;26;19935;-71
2024/04/19 14:17:10;;;;;;;;;;;8.90;99.90;;;;;;5491009;26;19932;-71
2024/04/19 14:19:35;;;;;;;;;;;9.00;99.90;;;;;;5490800;26;19940;-71
2024/04/19 14:22:01;;;;;;;;;;;9.30;99.90;;;;;;5490594;26;20261;-71
2024/04/19 14:24:27;;;;;;;;;;;10.50;83.00;;;;;;5491052;26;19934;-71